createdAt,value
2018-08-25T00:01:10.808Z,18.90
2018-08-25T00:04:44.293Z,18.80
2018-08-25T00:08:17.644Z,18.80
2018-08-25T00:11:51.073Z,18.80
2018-08-25T00:15:24.448Z,18.80
2018-08-25T00:18:57.848Z,18.70
2018-08-25T00:22:31.210Z,18.60
2018-08-25T00:26:04.601Z,18.50
2018-08-25T00:29:38.085Z,18.40
2018-08-25T00:33:11.472Z,18.30
2018-08-25T00:36:44.932Z,18.20
2018-08-25T00:40:18.316Z,18.10
2018-08-25T00:43:51.707Z,18.10
2018-08-25T00:47:25.195Z,18.00
2018-08-25T00:50:58.411Z,18.00
2018-08-25T00:54:31.636Z,17.90
2018-08-25T01:02:00.443Z,17.80
2018-08-25T01:05:33.676Z,17.80
2018-08-25T01:09:08.141Z,17.80
2018-08-25T01:12:41.355Z,17.90
2018-08-25T01:16:14.581Z,17.90
2018-08-25T01:19:47.808Z,17.90
2018-08-25T01:23:21.038Z,17.80
2018-08-25T01:26:54.279Z,17.80
2018-08-25T01:30:27.500Z,17.80
2018-08-25T01:34:01.713Z,17.80
2018-08-25T01:37:34.943Z,17.70
2018-08-25T01:41:08.192Z,17.60
2018-08-25T01:44:41.446Z,17.50
2018-08-25T01:48:14.688Z,17.50
2018-08-25T01:51:47.954Z,17.40
2018-08-25T01:55:21.208Z,17.40
2018-08-25T01:58:54.437Z,17.40
2018-08-25T02:02:27.814Z,17.30
2018-08-25T02:06:01.049Z,17.20
2018-08-25T02:09:34.284Z,17.20
2018-08-25T02:13:07.523Z,17.10
2018-08-25T02:16:41.420Z,17.10
2018-08-25T02:20:14.666Z,17.10
2018-08-25T02:23:47.921Z,17.10
2018-08-25T02:27:21.202Z,17.10
2018-08-25T02:30:54.454Z,17.10
2018-08-25T02:34:27.699Z,17.00
2018-08-25T02:38:00.979Z,17.00
2018-08-25T02:41:34.203Z,16.90
2018-08-25T02:45:07.441Z,16.90
2018-08-25T02:48:40.680Z,16.80
2018-08-25T02:52:13.975Z,16.80
2018-08-25T02:55:47.205Z,16.80
2018-08-25T02:59:20.456Z,16.80
2018-08-25T03:02:53.721Z,16.70
2018-08-25T03:06:26.961Z,16.70
2018-08-25T03:10:00.208Z,16.70
2018-08-25T03:13:33.473Z,16.60
2018-08-25T03:17:06.737Z,16.50
2018-08-25T03:20:39.997Z,16.50
2018-08-25T03:24:13.248Z,16.40
2018-08-25T03:27:46.505Z,16.40
2018-08-25T03:31:19.766Z,16.50
2018-08-25T03:34:52.982Z,16.40
2018-08-25T03:38:26.229Z,16.40
2018-08-25T03:41:59.485Z,16.30
2018-08-25T03:45:32.742Z,16.20
2018-08-25T03:49:05.988Z,16.20
2018-08-25T03:52:41.544Z,16.20
2018-08-25T03:56:14.807Z,16.10
2018-08-25T03:59:48.049Z,16.10
2018-08-25T04:03:21.293Z,16.10
2018-08-25T04:06:54.535Z,16.10
2018-08-25T04:10:27.768Z,16.00
2018-08-25T04:14:01.020Z,16.00
2018-08-25T04:17:34.309Z,15.90
2018-08-25T04:21:07.563Z,15.90
2018-08-25T04:24:40.816Z,15.90
2018-08-25T04:28:14.056Z,15.90
2018-08-25T04:31:47.276Z,15.80
2018-08-25T04:35:20.522Z,15.70
2018-08-25T04:38:53.773Z,15.70
2018-08-25T04:42:27.009Z,15.70
2018-08-25T04:46:00.238Z,15.60
2018-08-25T04:49:33.475Z,15.50
2018-08-25T04:53:06.713Z,15.50
2018-08-25T04:56:41.066Z,15.50
2018-08-25T05:00:14.296Z,15.60
2018-08-25T05:03:47.594Z,15.60
2018-08-25T05:07:20.806Z,15.60
2018-08-25T05:10:54.026Z,15.60
2018-08-25T05:14:27.257Z,15.60
2018-08-25T05:18:00.477Z,15.70
2018-08-25T05:21:33.702Z,15.80
2018-08-25T05:25:07.397Z,15.90
2018-08-25T05:28:40.699Z,15.90
2018-08-25T05:32:13.948Z,16.00
2018-08-25T05:35:47.173Z,16.00
2018-08-25T05:39:20.417Z,16.00
2018-08-25T05:42:53.632Z,16.10
2018-08-25T05:46:26.859Z,16.20
2018-08-25T05:50:00.218Z,16.30
2018-08-25T05:53:33.657Z,16.30
2018-08-25T05:57:07.198Z,16.40
2018-08-25T06:00:40.448Z,16.40
2018-08-25T06:04:13.688Z,16.60
2018-08-25T06:07:47.113Z,16.70
2018-08-25T06:11:20.357Z,16.70
2018-08-25T06:14:53.607Z,16.80
2018-08-25T06:18:26.835Z,16.80
2018-08-25T06:22:00.088Z,16.90
2018-08-25T06:25:33.344Z,16.90
2018-08-25T06:29:06.584Z,16.90
2018-08-25T06:32:39.801Z,17.00
2018-08-25T06:36:13.150Z,17.10
2018-08-25T06:39:46.368Z,17.30
2018-08-25T06:43:19.601Z,17.40
2018-08-25T06:46:52.857Z,17.60
2018-08-25T06:50:26.097Z,17.70
2018-08-25T06:53:59.324Z,17.80
2018-08-25T06:57:32.568Z,17.90
2018-08-25T07:01:05.831Z,17.90
2018-08-25T07:04:39.067Z,18.10
2018-08-25T07:08:12.291Z,18.20
2018-08-25T07:11:46.312Z,18.30
2018-08-25T07:15:19.566Z,18.40
2018-08-25T07:18:52.971Z,18.50
2018-08-25T07:22:26.161Z,18.70
2018-08-25T07:25:59.511Z,18.90
2018-08-25T07:29:32.733Z,19.10
2018-08-25T07:33:06.213Z,19.20
2018-08-25T07:36:39.448Z,19.20
2018-08-25T07:40:12.706Z,19.30
2018-08-25T07:43:45.991Z,19.40
2018-08-25T07:47:19.241Z,19.50
2018-08-25T07:50:52.461Z,19.60
2018-08-25T07:54:26.590Z,19.60
2018-08-25T07:57:59.828Z,19.50
2018-08-25T08:01:33.096Z,19.50
2018-08-25T08:05:08.347Z,19.60
2018-08-25T08:13:01.574Z,20.00
2018-08-25T08:16:34.808Z,20.10
2018-08-25T08:20:08.033Z,20.20
2018-08-25T08:23:41.261Z,20.30
2018-08-25T08:27:14.788Z,20.50
2018-08-25T08:30:48.022Z,20.60
2018-08-25T08:34:21.269Z,20.50
2018-08-25T08:37:54.544Z,20.50
2018-08-25T08:41:27.772Z,20.60
2018-08-25T08:45:00.988Z,20.70
2018-08-25T08:48:34.232Z,20.80
2018-08-25T08:52:07.464Z,20.90
2018-08-25T08:55:40.696Z,20.70
2018-08-25T08:59:13.940Z,20.60
2018-08-25T09:02:47.191Z,20.40
2018-08-25T09:06:20.470Z,20.20
2018-08-25T09:09:53.684Z,20.10
2018-08-25T09:13:26.885Z,19.90
2018-08-25T09:17:00.111Z,19.90
2018-08-25T09:20:33.359Z,19.90
2018-08-25T09:24:06.580Z,19.90
2018-08-25T09:27:39.808Z,19.90
2018-08-25T09:31:13.058Z,19.80
2018-08-25T09:34:46.283Z,19.80
2018-08-25T09:38:19.916Z,19.90
2018-08-25T09:41:53.131Z,19.90
2018-08-25T09:45:26.351Z,19.80
2018-08-25T09:48:59.556Z,19.60
2018-08-25T09:52:32.780Z,19.50
2018-08-25T09:56:06.013Z,19.40
2018-08-25T09:59:39.241Z,19.20
2018-08-25T10:03:12.480Z,19.10
2018-08-25T10:06:45.708Z,18.90
2018-08-25T10:10:18.912Z,18.50
2018-08-25T10:13:52.160Z,18.20
2018-08-25T10:17:25.437Z,18.10
2018-08-25T10:20:58.660Z,18.10
2018-08-25T10:24:31.884Z,18.10
2018-08-25T10:28:05.096Z,18.10
2018-08-25T10:31:38.326Z,18.10
2018-08-25T10:35:11.544Z,18.10
2018-08-25T10:38:44.820Z,18.10
2018-08-25T10:42:18.145Z,18.10
2018-08-25T10:45:51.628Z,18.20
2018-08-25T10:49:24.823Z,18.20
2018-08-25T10:52:58.066Z,18.30
2018-08-25T10:56:31.276Z,18.40
2018-08-25T11:00:04.643Z,18.50
2018-08-25T11:03:37.807Z,18.60
2018-08-25T11:07:10.999Z,18.70
2018-08-25T11:10:44.221Z,18.80
2018-08-25T11:14:17.466Z,18.80
2018-08-25T11:17:50.679Z,18.80
2018-08-25T11:21:23.904Z,18.70
2018-08-25T11:24:57.129Z,18.70
2018-08-25T11:28:30.350Z,18.60
2018-08-25T11:32:03.628Z,18.30
2018-08-25T11:35:36.868Z,18.20
2018-08-25T11:39:10.928Z,18.20
2018-08-25T11:42:44.188Z,18.20
2018-08-25T11:46:17.400Z,18.20
2018-08-25T11:49:50.625Z,18.20
2018-08-25T11:53:23.892Z,18.10
2018-08-25T11:56:57.148Z,18.00
2018-08-25T12:00:30.761Z,17.90
2018-08-25T12:04:04.028Z,17.80
2018-08-25T12:07:37.260Z,17.70
2018-08-25T12:11:10.501Z,17.80
2018-08-25T12:14:43.720Z,17.90
2018-08-25T12:18:17.026Z,17.90
2018-08-25T12:21:50.440Z,17.90
2018-08-25T12:25:23.659Z,17.90
2018-08-25T12:28:56.904Z,17.70
2018-08-25T12:32:30.151Z,17.70
2018-08-25T12:36:03.411Z,17.70
2018-08-25T12:39:36.675Z,17.80
2018-08-25T12:43:10.773Z,17.80
2018-08-25T12:46:43.955Z,17.90
2018-08-25T12:50:17.192Z,17.80
2018-08-25T12:53:50.500Z,17.80
2018-08-25T12:57:23.723Z,17.70
2018-08-25T13:00:57.170Z,17.60
2018-08-25T13:04:30.414Z,17.70
2018-08-25T13:08:03.652Z,17.80
2018-08-25T13:11:36.917Z,17.90
2018-08-25T13:15:10.141Z,18.00
2018-08-25T13:18:43.381Z,18.00
2018-08-25T13:22:16.606Z,18.00
2018-08-25T13:25:49.828Z,17.90
2018-08-25T13:29:23.036Z,17.80
2018-08-25T13:32:56.296Z,17.80
2018-08-25T13:36:29.523Z,17.90
2018-08-25T13:40:02.819Z,17.90
2018-08-25T13:43:36.023Z,18.00
2018-08-25T13:47:09.248Z,18.10
2018-08-25T13:50:42.483Z,18.10
2018-08-25T13:54:15.701Z,18.00
2018-08-25T13:57:48.926Z,18.10
2018-08-25T14:01:22.579Z,18.20
2018-08-25T14:04:55.820Z,18.20
2018-08-25T14:08:29.217Z,18.20
2018-08-25T14:12:02.457Z,18.30
2018-08-25T14:15:35.786Z,18.40
2018-08-25T14:19:09.008Z,18.40
2018-08-25T14:22:42.228Z,18.30
2018-08-25T14:26:15.447Z,18.30
2018-08-25T14:29:48.671Z,18.30
2018-08-25T14:33:21.887Z,18.20
2018-08-25T14:36:55.115Z,18.20
2018-08-25T14:40:28.328Z,18.20
2018-08-25T14:44:01.574Z,18.20
2018-08-25T14:47:34.916Z,18.10
2018-08-25T14:51:08.159Z,18.10
2018-08-25T14:54:41.393Z,18.10
2018-08-25T14:58:15.156Z,18.10
2018-08-25T15:01:48.384Z,18.20
2018-08-25T15:05:21.625Z,18.50
2018-08-25T15:08:54.901Z,18.60
2018-08-25T15:12:28.120Z,18.70
2018-08-25T15:16:01.364Z,18.70
2018-08-25T15:19:34.632Z,18.70
2018-08-25T15:23:08.014Z,18.50
2018-08-25T15:26:41.311Z,18.40
2018-08-25T15:30:14.521Z,18.30
2018-08-25T15:33:48.021Z,18.40
2018-08-25T15:37:21.248Z,18.60
2018-08-25T15:40:54.460Z,18.70
2018-08-25T15:44:28.016Z,18.70
2018-08-25T15:48:01.294Z,18.60
2018-08-25T15:51:34.551Z,18.60
2018-08-25T15:55:08.392Z,18.60
2018-08-25T15:58:41.577Z,18.70
2018-08-25T16:02:14.912Z,18.70
2018-08-25T16:05:48.356Z,18.70
2018-08-25T16:09:22.019Z,18.70
2018-08-25T16:12:55.235Z,18.80
2018-08-25T16:16:30.161Z,18.70
2018-08-25T16:20:04.131Z,18.80
2018-08-25T16:23:39.164Z,18.80
2018-08-25T16:27:12.421Z,19.00
2018-08-25T16:30:45.893Z,19.00
2018-08-25T16:34:19.138Z,18.90
2018-08-25T16:37:52.359Z,19.00
2018-08-25T16:41:25.611Z,19.00
2018-08-25T16:44:58.840Z,19.00
2018-08-25T16:48:32.095Z,19.00
2018-08-25T16:52:05.448Z,19.00
2018-08-25T16:55:38.700Z,18.90
2018-08-25T16:59:12.010Z,18.90
2018-08-25T17:02:45.244Z,18.80
2018-08-25T17:06:18.504Z,18.80
2018-08-25T17:09:51.738Z,18.70
2018-08-25T17:13:24.981Z,18.70
2018-08-25T17:16:58.239Z,18.60
2018-08-25T17:20:31.464Z,18.50
2018-08-25T17:24:04.716Z,18.30
2018-08-25T17:27:37.951Z,18.20
2018-08-25T17:31:11.204Z,18.20
2018-08-25T17:34:44.587Z,18.10
2018-08-25T17:38:17.788Z,18.00
2018-08-25T17:41:51.555Z,18.00
2018-08-25T17:45:25.102Z,17.90
2018-08-25T17:48:58.340Z,17.80
2018-08-25T17:52:31.571Z,17.90
2018-08-25T17:56:05.911Z,17.90
2018-08-25T17:59:39.178Z,17.80
2018-08-25T18:03:13.080Z,17.80
2018-08-25T18:06:46.877Z,17.70
2018-08-25T18:10:20.760Z,17.50
2018-08-25T18:13:54.538Z,17.40
2018-08-25T18:17:27.924Z,17.40
2018-08-25T18:21:01.298Z,17.40
2018-08-25T18:24:34.888Z,17.40
2018-08-25T18:28:08.156Z,17.40
2018-08-25T18:31:41.585Z,17.30
2018-08-25T18:35:15.059Z,17.30
2018-08-25T18:38:48.663Z,17.30
2018-08-25T18:42:22.367Z,17.40
2018-08-25T18:45:55.914Z,17.40
2018-08-25T18:49:29.627Z,17.30
2018-08-25T18:53:03.211Z,17.30
2018-08-25T18:56:36.825Z,17.20
2018-08-25T19:00:10.230Z,17.20
2018-08-25T19:03:43.537Z,17.20
2018-08-25T19:07:17.933Z,17.20
2018-08-25T19:10:52.028Z,17.10
2018-08-25T19:14:25.773Z,17.00
2018-08-25T19:17:59.533Z,16.90
2018-08-25T19:21:33.239Z,16.90
2018-08-25T19:25:06.796Z,16.90
2018-08-25T19:28:42.545Z,16.80
2018-08-25T19:32:15.905Z,16.80
2018-08-25T19:35:49.223Z,16.80
2018-08-25T19:39:22.415Z,16.70
2018-08-25T19:42:55.923Z,16.70
2018-08-25T19:46:29.157Z,16.60
2018-08-25T19:50:02.394Z,16.50
2018-08-25T19:53:35.622Z,16.40
2018-08-25T19:57:08.845Z,16.40
2018-08-25T20:00:42.305Z,16.30
2018-08-25T20:04:15.589Z,16.30
2018-08-25T20:07:48.859Z,16.30
2018-08-25T20:11:22.088Z,16.40
2018-08-25T20:14:55.308Z,16.40
2018-08-25T20:18:28.692Z,16.50
2018-08-25T20:22:01.924Z,16.50
2018-08-25T20:25:35.162Z,16.50
2018-08-25T20:29:08.388Z,16.50
2018-08-25T20:32:41.604Z,16.40
2018-08-25T20:36:15.003Z,16.30
2018-08-25T20:39:48.308Z,16.30
2018-08-25T20:43:21.567Z,16.20
2018-08-25T20:46:54.855Z,16.20
2018-08-25T20:50:28.083Z,16.20
2018-08-25T20:54:01.668Z,16.20
2018-08-25T20:57:35.065Z,16.00
2018-08-25T21:01:08.288Z,15.90
2018-08-25T21:04:41.556Z,15.70
2018-08-25T21:08:14.779Z,15.70
2018-08-25T21:11:48.004Z,15.60
2018-08-25T21:15:21.228Z,15.60
2018-08-25T21:18:54.488Z,15.60
2018-08-25T21:22:27.703Z,15.60
2018-08-25T21:26:01.016Z,15.50
2018-08-25T21:29:34.297Z,15.50
2018-08-25T21:33:07.548Z,15.40
2018-08-25T21:36:40.800Z,15.40
2018-08-25T21:40:14.041Z,15.30
2018-08-25T21:43:47.305Z,15.30
2018-08-25T21:47:20.584Z,15.20
2018-08-25T21:50:53.827Z,15.10
2018-08-25T21:54:27.077Z,15.10
2018-08-25T21:58:00.326Z,15.00
2018-08-25T22:01:39.051Z,15.00
2018-08-25T22:05:12.341Z,14.90
2018-08-25T22:08:45.628Z,14.90
2018-08-25T22:12:18.867Z,14.90
2018-08-25T22:15:52.125Z,14.90
2018-08-25T22:19:25.380Z,14.80
2018-08-25T22:22:58.631Z,14.70
2018-08-25T22:26:31.855Z,14.70
2018-08-25T22:30:05.212Z,14.60
2018-08-25T22:33:38.499Z,14.60
2018-08-25T22:37:11.766Z,14.60
2018-08-25T22:40:44.992Z,14.60
2018-08-25T22:44:18.203Z,14.60
2018-08-25T22:47:51.447Z,14.60
2018-08-25T22:51:24.730Z,14.70
2018-08-25T22:54:57.997Z,14.80
2018-08-25T22:58:31.267Z,14.80
2018-08-25T23:02:04.567Z,14.80
2018-08-25T23:05:37.834Z,14.80
2018-08-25T23:09:11.060Z,14.80
2018-08-25T23:12:44.301Z,14.80
2018-08-25T23:16:17.577Z,14.70
2018-08-25T23:19:51.404Z,14.70
2018-08-25T23:23:24.643Z,14.70
2018-08-25T23:26:57.896Z,14.60
2018-08-25T23:30:31.226Z,14.60
2018-08-25T23:34:04.399Z,14.60
2018-08-25T23:37:37.636Z,14.50
2018-08-25T23:41:10.894Z,14.60
2018-08-25T23:44:44.167Z,14.60
2018-08-25T23:48:17.428Z,14.50
2018-08-25T23:51:51.277Z,14.50
2018-08-25T23:55:24.508Z,14.40
2018-08-25T23:58:57.756Z,14.40
